SGCO/CIO METAR and TAF weather

Enter ICAO airport designator
Station Type Date Time Source
SGCO METAR 2020/09/21 09:00 UTC NOAA

SGCO 210900Z 19007KT 8000 NSC 15/08 Q1018


Station Type Date Time Source
SGCO Decoded METAR 2020/09/21 09:00 UTC NOAA

Concepcion, Paraguay (SGCO) 23-25S 057-18W 74M
Sep 21, 2020 - 05:00 AM EDT / 2020.09.21 0900 UTC
Wind: from the S (190 degrees) at 8 MPH (7 KT):0
Visibility: 4 mile(s):0
Temperature: 59 F (15 C)
Dew Point: 46 F (8 C)
Relative Humidity: 62%
Pressure (altimeter): 30.06 in. Hg (1018 hPa)
ob: SGCO 210900Z 19007KT 8000 NSC 15/08 Q1018
cycle: 9

Station Type Date Time Source
SGCO TAF 2020/09/28 06:00 UTC NOAA

TAF SGCO 280500Z 2806/2906 21012KT 9999 BKN027 TX28/2819Z TN19/2806Z PROB30
TEMPO 2808/2810 8000 -TSRA BKN020 FEW040CB
BECMG 2811/2814 18012KT 9999 -RA BKN027
BECMG 2816/2819 9999 BKN030
BECMG 2821/2900 24010KT CAVOK

Example: see airport list